createdAt,value
2023-01-17T00:02:11.086Z,74.74
2023-01-17T00:05:31.711Z,74.59
2023-01-17T00:08:52.217Z,73.18
2023-01-17T00:11:54.194Z,72.22
2023-01-17T00:14:56.637Z,75.57
2023-01-17T00:17:58.713Z,71.75
2023-01-17T00:21:19.400Z,71.98
2023-01-17T00:24:39.789Z,74.04
2023-01-17T00:27:41.626Z,70.27
2023-01-17T00:30:43.428Z,74.17
2023-01-17T00:33:45.240Z,72.66
2023-01-17T00:36:47.066Z,74.28
2023-01-17T00:39:48.882Z,73.39
2023-01-17T00:42:50.713Z,75.88
2023-01-17T00:46:11.616Z,71.49
2023-01-17T00:49:31.983Z,70.49
2023-01-17T00:52:52.237Z,70.07
2023-01-17T00:56:12.611Z,69.75
2023-01-17T00:59:33.202Z,68.80
2023-01-17T01:02:54.328Z,68.96
2023-01-17T01:06:14.616Z,70.09
2023-01-17T01:09:35.169Z,70.43
2023-01-17T01:12:55.528Z,68.79
2023-01-17T01:16:19.418Z,71.26
2023-01-17T01:19:39.842Z,73.71
2023-01-17T01:23:00.489Z,73.45
2023-01-17T01:26:21.769Z,72.15
2023-01-17T01:29:42.362Z,70.95
2023-01-17T01:33:02.891Z,73.83
2023-01-17T01:36:06.683Z,73.48
2023-01-17T01:39:08.554Z,74.01
2023-01-17T01:42:16.442Z,73.48
2023-01-17T01:45:19.805Z,70.38
2023-01-17T01:48:30.885Z,72.92
2023-01-17T01:51:38.838Z,72.80
2023-01-17T01:54:42.066Z,75.26
2023-01-17T01:57:44.419Z,73.92
2023-01-17T02:00:46.354Z,78.15
2023-01-17T02:03:48.315Z,78.37
2023-01-17T02:06:51.906Z,75.32
2023-01-17T02:09:53.890Z,74.07
2023-01-17T02:12:55.757Z,72.37
2023-01-17T02:16:01.435Z,72.41
2023-01-17T02:19:20.827Z,73.16
2023-01-17T02:22:31.874Z,72.61
2023-01-17T02:25:52.352Z,72.71
2023-01-17T02:29:14.565Z,72.55
2023-01-17T02:32:25.599Z,75.24
2023-01-17T02:35:38.151Z,75.40
2023-01-17T02:38:49.304Z,75.38
2023-01-17T02:41:52.072Z,73.59
2023-01-17T02:44:53.967Z,74.63
2023-01-17T02:47:55.948Z,73.71
2023-01-17T02:51:08.159Z,72.73
2023-01-17T02:54:10.054Z,73.01
2023-01-17T02:57:12.088Z,73.38
2023-01-17T03:00:14.057Z,71.96
2023-01-17T03:03:21.782Z,70.41
2023-01-17T03:06:25.400Z,70.94
2023-01-17T03:09:27.268Z,71.09
2023-01-17T03:12:33.129Z,71.10
2023-01-17T03:15:35.006Z,71.70
2023-01-17T03:18:37.083Z,72.17
2023-01-17T03:21:39.008Z,69.49
2023-01-17T03:24:40.961Z,70.91
2023-01-17T03:27:42.917Z,69.73
2023-01-17T03:30:44.992Z,69.76
2023-01-17T03:33:47.137Z,72.40
2023-01-17T03:36:48.958Z,71.41
2023-01-17T03:39:50.863Z,70.81
2023-01-17T03:42:52.701Z,70.42
2023-01-17T03:45:59.095Z,73.88
2023-01-17T03:49:01.079Z,73.59
2023-01-17T03:52:03.106Z,71.17
2023-01-17T03:55:05.677Z,72.37
2023-01-17T03:58:07.529Z,73.81
2023-01-17T04:01:09.603Z,70.41
2023-01-17T04:04:11.652Z,70.37
2023-01-17T04:07:13.622Z,70.37
2023-01-17T04:10:15.721Z,72.78
2023-01-17T04:13:17.605Z,72.12
2023-01-17T04:16:19.609Z,73.60
2023-01-17T04:19:22.538Z,71.89
2023-01-17T04:22:24.507Z,72.02
2023-01-17T04:25:26.529Z,71.80
2023-01-17T04:28:28.394Z,71.71
2023-01-17T04:31:30.328Z,71.77
2023-01-17T04:34:32.276Z,70.07
2023-01-17T04:37:34.155Z,67.51
2023-01-17T04:40:36.013Z,70.99
2023-01-17T04:43:38.402Z,72.53
2023-01-17T04:46:40.256Z,74.05
2023-01-17T04:49:44.080Z,70.01
2023-01-17T04:52:46.095Z,70.36
2023-01-17T04:55:48.021Z,69.77
2023-01-17T04:58:49.916Z,70.05
2023-01-17T05:01:51.842Z,71.56
2023-01-17T05:04:53.736Z,70.11
2023-01-17T05:07:55.996Z,73.20
2023-01-17T05:10:58.039Z,74.12
2023-01-17T05:14:00.279Z,74.02
2023-01-17T05:17:03.179Z,73.90
2023-01-17T05:20:05.318Z,71.06
2023-01-17T05:23:07.218Z,73.61
2023-01-17T05:26:09.178Z,74.90
2023-01-17T05:29:11.314Z,72.37
2023-01-17T05:32:13.224Z,70.17
2023-01-17T05:35:15.804Z,74.69
2023-01-17T05:38:17.690Z,76.74
2023-01-17T05:41:19.682Z,75.78
2023-01-17T05:44:21.598Z,75.55
2023-01-17T05:47:23.665Z,73.27
2023-01-17T05:50:26.706Z,76.19
2023-01-17T05:53:28.645Z,77.12
2023-01-17T05:56:30.542Z,77.64
2023-01-17T05:59:37.415Z,76.64
2023-01-17T06:02:39.781Z,75.94
2023-01-17T06:05:41.894Z,75.40
2023-01-17T06:08:43.739Z,74.50
2023-01-17T06:11:45.822Z,75.36
2023-01-17T06:14:47.762Z,77.66
2023-01-17T06:17:49.578Z,78.79
2023-01-17T06:20:54.825Z,79.16
2023-01-17T06:23:56.793Z,78.14
2023-01-17T06:26:58.755Z,78.52
2023-01-17T06:30:00.657Z,72.84
2023-01-17T06:33:02.790Z,66.79
2023-01-17T06:36:04.997Z,65.82
2023-01-17T06:39:07.013Z,68.26
2023-01-17T06:42:09.145Z,70.83
2023-01-17T06:45:11.604Z,74.60
2023-01-17T06:48:13.750Z,76.33
2023-01-17T06:51:15.961Z,77.01
2023-01-17T06:54:18.904Z,77.20
2023-01-17T06:57:20.830Z,77.73
2023-01-17T07:00:22.774Z,78.62
2023-01-17T07:03:25.594Z,77.94
2023-01-17T07:06:28.989Z,76.45
2023-01-17T07:09:31.073Z,76.17
2023-01-17T07:12:32.990Z,76.35
2023-01-17T07:15:35.150Z,75.43
2023-01-17T07:18:37.155Z,75.07
2023-01-17T07:21:41.363Z,75.66
2023-01-17T07:24:43.290Z,73.71
2023-01-17T07:27:45.160Z,73.15
2023-01-17T07:30:47.107Z,73.95
2023-01-17T07:33:49.094Z,72.42
2023-01-17T07:36:51.041Z,72.05
2023-01-17T07:39:54.023Z,74.98
2023-01-17T07:43:02.249Z,72.76
2023-01-17T07:46:05.467Z,72.64
2023-01-17T07:49:07.540Z,75.72
2023-01-17T07:52:09.860Z,69.92
2023-01-17T07:55:11.942Z,71.97
2023-01-17T07:58:15.089Z,69.20
2023-01-17T08:01:17.087Z,70.14
2023-01-17T08:04:18.972Z,71.11
2023-01-17T08:07:20.914Z,68.75
2023-01-17T08:10:23.336Z,71.63
2023-01-17T08:13:25.402Z,68.19
2023-01-17T08:16:28.847Z,70.74
2023-01-17T08:19:31.223Z,70.21
2023-01-17T08:22:33.323Z,68.23
2023-01-17T08:25:35.860Z,64.30
2023-01-17T08:28:37.775Z,66.17
2023-01-17T08:31:39.926Z,70.14
2023-01-17T08:34:42.039Z,65.84
2023-01-17T08:37:43.992Z,65.58
2023-01-17T08:40:46.150Z,64.38
2023-01-17T08:43:48.921Z,61.01
2023-01-17T08:46:50.799Z,61.87
2023-01-17T08:49:52.806Z,62.37
2023-01-17T08:53:00.852Z,61.35
2023-01-17T08:56:04.082Z,60.99
2023-01-17T08:59:06.338Z,61.46
2023-01-17T09:02:14.919Z,63.95
2023-01-17T09:05:17.450Z,64.06
2023-01-17T09:08:19.630Z,65.03
2023-01-17T09:11:21.662Z,68.48
2023-01-17T09:14:24.272Z,64.30
2023-01-17T09:17:26.275Z,64.74
2023-01-17T09:20:30.212Z,61.58
2023-01-17T09:23:32.176Z,65.76
2023-01-17T09:26:34.085Z,64.12
2023-01-17T09:29:36.207Z,63.45
2023-01-17T09:32:38.211Z,64.26
2023-01-17T09:35:40.189Z,63.29
2023-01-17T09:38:42.546Z,59.61
2023-01-17T09:41:47.322Z,58.17
2023-01-17T09:44:52.697Z,58.83
2023-01-17T09:47:54.639Z,58.18
2023-01-17T09:50:58.360Z,58.63
2023-01-17T09:54:02.437Z,59.74
2023-01-17T09:57:13.949Z,59.28
2023-01-17T10:00:31.361Z,58.69
2023-01-17T10:03:46.123Z,58.59
2023-01-17T10:07:06.910Z,56.54
2023-01-17T10:10:08.872Z,57.11
2023-01-17T10:13:33.831Z,57.94
2023-01-17T10:16:44.856Z,59.88
2023-01-17T10:19:53.639Z,60.65
2023-01-17T10:23:14.107Z,61.25
2023-01-17T10:26:22.100Z,58.42
2023-01-17T10:29:24.214Z,59.74
2023-01-17T10:32:26.634Z,61.79
2023-01-17T10:35:34.662Z,60.80
2023-01-17T10:38:37.355Z,60.60
2023-01-17T10:41:45.973Z,57.54
2023-01-17T10:44:53.074Z,56.68
2023-01-17T10:48:16.296Z,56.22
2023-01-17T10:51:22.004Z,53.33
2023-01-17T10:54:42.510Z,47.97
2023-01-17T10:57:45.567Z,47.65
2023-01-17T11:01:11.010Z,47.08
2023-01-17T11:04:21.281Z,47.97
2023-01-17T11:07:27.851Z,47.05
2023-01-17T11:10:38.049Z,48.05
2023-01-17T11:13:40.032Z,47.39
2023-01-17T11:16:42.413Z,46.11
2023-01-17T11:19:47.683Z,47.06
2023-01-17T11:23:08.429Z,46.70
2023-01-17T11:26:21.545Z,45.16
2023-01-17T11:29:26.882Z,42.43
2023-01-17T11:32:31.271Z,41.95
2023-01-17T11:35:36.948Z,40.93
2023-01-17T11:38:38.921Z,38.38
2023-01-17T11:41:43.131Z,43.07
2023-01-17T11:44:45.030Z,39.88
2023-01-17T11:47:46.954Z,39.63
2023-01-17T11:50:58.408Z,38.19
2023-01-17T11:54:17.217Z,39.87
2023-01-17T11:57:32.939Z,37.94
2023-01-17T12:00:37.942Z,36.80
2023-01-17T12:03:46.334Z,33.98
2023-01-17T12:06:57.989Z,37.58
2023-01-17T12:10:00.353Z,37.55
2023-01-17T12:13:27.257Z,33.88
2023-01-17T12:16:38.207Z,33.91
2023-01-17T12:19:41.497Z,31.11
2023-01-17T12:22:52.812Z,32.04
2023-01-17T12:26:13.101Z,31.98
2023-01-17T12:29:15.000Z,32.72
2023-01-17T12:32:29.982Z,36.45
2023-01-17T12:35:39.995Z,38.82
2023-01-17T12:38:42.066Z,38.45
2023-01-17T12:41:43.971Z,37.10
2023-01-17T12:45:06.145Z,38.28
2023-01-17T12:48:26.200Z,38.82
2023-01-17T12:51:29.587Z,38.94
2023-01-17T12:54:34.100Z,40.72
2023-01-17T12:57:41.729Z,39.22
2023-01-17T13:00:44.263Z,40.64
2023-01-17T13:03:52.412Z,43.92
2023-01-17T13:07:00.545Z,46.40
2023-01-17T13:10:05.183Z,47.71
2023-01-17T13:13:20.410Z,46.19
2023-01-17T13:16:30.520Z,47.26
2023-01-17T13:19:51.669Z,45.91
2023-01-17T13:22:53.761Z,46.62
2023-01-17T13:25:57.599Z,44.53
2023-01-17T13:29:20.115Z,44.67
2023-01-17T13:32:43.390Z,44.78
2023-01-17T13:35:52.246Z,44.40
2023-01-17T13:39:14.459Z,46.25
2023-01-17T13:42:22.840Z,48.17
2023-01-17T13:45:26.719Z,48.86
2023-01-17T13:48:30.774Z,48.84
2023-01-17T13:51:52.629Z,49.48
2023-01-17T13:54:54.746Z,50.87
2023-01-17T13:57:56.765Z,49.38
2023-01-17T14:00:58.805Z,51.07
2023-01-17T14:04:05.056Z,49.51
2023-01-17T14:07:13.601Z,49.12
2023-01-17T14:10:21.508Z,51.17
2023-01-17T14:13:38.951Z,50.27
2023-01-17T14:16:40.860Z,49.42
2023-01-17T14:19:47.230Z,50.24
2023-01-17T14:22:51.609Z,50.96
2023-01-17T14:25:53.590Z,51.16
2023-01-17T14:28:56.009Z,51.37
2023-01-17T14:32:02.146Z,50.82
2023-01-17T14:35:04.777Z,51.58
2023-01-17T14:38:26.215Z,51.41
2023-01-17T14:41:31.450Z,52.93
2023-01-17T14:44:34.171Z,53.58
2023-01-17T14:47:37.327Z,56.64
2023-01-17T14:50:40.179Z,54.02
2023-01-17T14:53:45.211Z,52.33
2023-01-17T14:56:48.206Z,53.44
2023-01-17T14:59:50.254Z,52.09
2023-01-17T15:02:52.731Z,54.09
2023-01-17T15:05:55.958Z,52.54
2023-01-17T15:09:01.192Z,55.23
2023-01-17T15:12:03.283Z,52.80
2023-01-17T15:15:05.594Z,55.71
2023-01-17T15:18:13.689Z,52.55
2023-01-17T15:21:16.267Z,52.30
2023-01-17T15:24:19.916Z,53.16
2023-01-17T15:27:21.820Z,53.40
2023-01-17T15:30:25.307Z,52.75
2023-01-17T15:33:27.507Z,52.15
2023-01-17T15:36:32.552Z,55.74
2023-01-17T15:39:35.293Z,53.31
2023-01-17T15:42:37.257Z,52.78
2023-01-17T15:45:39.204Z,52.69
2023-01-17T15:48:42.262Z,53.50
2023-01-17T15:51:47.170Z,52.60
2023-01-17T15:54:51.839Z,51.89
2023-01-17T15:57:53.838Z,53.80
2023-01-17T16:00:55.980Z,53.18
2023-01-17T16:03:58.770Z,54.25
2023-01-17T16:07:30.532Z,53.73
2023-01-17T16:10:33.488Z,56.08
2023-01-17T16:13:37.836Z,55.52
2023-01-17T16:16:40.140Z,54.69
2023-01-17T16:19:42.162Z,53.55
2023-01-17T16:22:44.515Z,52.11
2023-01-17T16:25:47.591Z,52.30
2023-01-17T16:28:50.016Z,52.88
2023-01-17T16:31:51.990Z,52.83
2023-01-17T16:34:53.967Z,52.81
2023-01-17T16:38:02.901Z,56.72
2023-01-17T16:41:04.822Z,53.94
2023-01-17T16:44:06.697Z,56.16
2023-01-17T16:47:08.606Z,54.64
2023-01-17T16:50:11.331Z,56.54
2023-01-17T16:53:13.643Z,57.96
2023-01-17T16:56:16.985Z,57.04
2023-01-17T16:59:19.029Z,58.57
2023-01-17T17:02:21.002Z,59.24
2023-01-17T17:05:23.039Z,62.21
2023-01-17T17:08:24.947Z,62.49
2023-01-17T17:11:26.830Z,64.39
2023-01-17T17:14:29.492Z,63.27
2023-01-17T17:17:34.479Z,63.96
2023-01-17T17:20:36.499Z,68.37
2023-01-17T17:23:38.458Z,66.37
2023-01-17T17:26:41.021Z,70.06
2023-01-17T17:29:42.918Z,71.23
2023-01-17T17:32:45.328Z,71.21
2023-01-17T17:35:47.369Z,70.35
2023-01-17T17:38:53.122Z,73.06
2023-01-17T17:41:55.120Z,75.12
2023-01-17T17:44:57.475Z,73.61
2023-01-17T17:47:59.463Z,76.28
2023-01-17T17:51:01.834Z,74.43
2023-01-17T17:54:07.794Z,71.77
2023-01-17T17:57:09.782Z,70.42
2023-01-17T18:00:11.920Z,73.71
2023-01-17T18:03:14.051Z,74.64
2023-01-17T18:06:17.550Z,74.34
2023-01-17T18:09:19.586Z,74.70
2023-01-17T18:12:21.637Z,76.22
2023-01-17T18:15:24.247Z,78.94
2023-01-17T18:18:28.255Z,79.37
2023-01-17T18:21:34.328Z,78.78
2023-01-17T18:24:36.730Z,80.64
2023-01-17T18:27:42.676Z,78.35
2023-01-17T18:30:44.696Z,77.12
2023-01-17T18:33:46.588Z,79.67
2023-01-17T18:36:48.517Z,79.68
2023-01-17T18:39:50.508Z,80.15
2023-01-17T18:42:52.797Z,82.11
2023-01-17T18:45:55.274Z,81.73
2023-01-17T18:48:57.747Z,81.76
2023-01-17T18:52:00.203Z,83.43
2023-01-17T18:55:02.281Z,82.74
2023-01-17T18:58:04.261Z,85.86
2023-01-17T19:01:16.837Z,86.50
2023-01-17T19:04:19.320Z,82.87
2023-01-17T19:07:21.717Z,86.74
2023-01-17T19:10:23.684Z,87.80
2023-01-17T19:13:25.583Z,83.13
2023-01-17T19:16:28.552Z,85.76
2023-01-17T19:19:30.594Z,83.58
2023-01-17T19:22:32.540Z,85.10
2023-01-17T19:25:34.968Z,84.15
2023-01-17T19:28:37.484Z,87.23
2023-01-17T19:31:42.610Z,85.09
2023-01-17T19:34:45.145Z,85.84
2023-01-17T19:37:47.773Z,85.86
2023-01-17T19:40:49.617Z,86.70
2023-01-17T19:43:55.572Z,85.19
2023-01-17T19:46:57.875Z,86.92
2023-01-17T19:49:59.812Z,85.84
2023-01-17T19:53:01.816Z,83.43
2023-01-17T19:56:07.673Z,84.54
2023-01-17T19:59:09.845Z,84.91
2023-01-17T20:02:12.055Z,85.71
2023-01-17T20:05:14.407Z,85.64
2023-01-17T20:08:16.317Z,86.89
2023-01-17T20:11:22.271Z,86.69
2023-01-17T20:14:24.543Z,85.32
2023-01-17T20:17:26.350Z,84.69
2023-01-17T20:20:32.529Z,86.29
2023-01-17T20:23:38.811Z,86.54
2023-01-17T20:26:40.997Z,85.39
2023-01-17T20:29:43.997Z,86.24
2023-01-17T20:32:46.586Z,86.10
2023-01-17T20:35:51.615Z,85.43
2023-01-17T20:39:02.374Z,84.51
2023-01-17T20:42:04.372Z,85.57
2023-01-17T20:45:07.582Z,87.09
2023-01-17T20:48:09.760Z,86.68
2023-01-17T20:51:11.846Z,85.30
2023-01-17T20:54:14.699Z,86.75
2023-01-17T20:57:16.610Z,86.29
2023-01-17T21:00:18.815Z,90.55
2023-01-17T21:03:20.659Z,90.92
2023-01-17T21:06:22.882Z,90.83
2023-01-17T21:09:25.015Z,81.86
2023-01-17T21:12:26.849Z,82.05
2023-01-17T21:15:28.810Z,81.95
2023-01-17T21:18:33.278Z,87.93
2023-01-17T21:21:35.146Z,88.96
2023-01-17T21:24:37.102Z,89.45
2023-01-17T21:27:38.952Z,82.88
2023-01-17T21:30:40.905Z,79.93
2023-01-17T21:33:42.864Z,79.23
2023-01-17T21:36:44.809Z,80.19
2023-01-17T21:39:51.437Z,84.96
2023-01-17T21:42:53.323Z,88.45
2023-01-17T21:45:55.503Z,83.72
2023-01-17T21:48:57.947Z,79.07
2023-01-17T21:51:59.875Z,77.39
2023-01-17T21:55:20.211Z,80.11
2023-01-17T21:58:40.561Z,83.88
2023-01-17T22:01:42.789Z,85.01
2023-01-17T22:04:44.829Z,81.10
2023-01-17T22:08:05.344Z,79.62
2023-01-17T22:11:14.480Z,81.84
2023-01-17T22:14:16.379Z,87.63
2023-01-17T22:17:18.285Z,87.54
2023-01-17T22:20:21.406Z,84.23
2023-01-17T22:23:23.596Z,80.63
2023-01-17T22:26:26.534Z,83.81
2023-01-17T22:29:28.475Z,84.43
2023-01-17T22:32:30.273Z,88.44
2023-01-17T22:35:32.799Z,82.78
2023-01-17T22:38:34.662Z,81.39
2023-01-17T22:41:37.450Z,82.12
2023-01-17T22:44:39.388Z,85.20
2023-01-17T22:47:41.341Z,82.31
2023-01-17T22:50:43.179Z,82.54
2023-01-17T22:53:49.017Z,83.12
2023-01-17T22:56:50.891Z,86.02
2023-01-17T22:59:52.758Z,86.41
2023-01-17T23:02:54.951Z,85.37
2023-01-17T23:05:57.500Z,83.30
2023-01-17T23:09:00.701Z,79.97
2023-01-17T23:12:02.596Z,81.30
2023-01-17T23:15:23.551Z,82.08
2023-01-17T23:18:43.901Z,80.39
2023-01-17T23:22:04.498Z,84.26
2023-01-17T23:25:07.798Z,80.25
2023-01-17T23:28:14.527Z,78.39
2023-01-17T23:31:16.534Z,81.38
2023-01-17T23:34:18.618Z,77.75
2023-01-17T23:37:20.814Z,79.09
2023-01-17T23:40:22.677Z,81.22
2023-01-17T23:43:24.571Z,75.16
2023-01-17T23:46:26.951Z,78.91
2023-01-17T23:49:31.366Z,79.12
2023-01-17T23:52:33.227Z,71.94
2023-01-17T23:55:36.053Z,74.50
2023-01-17T23:58:38.176Z,78.31
